Sagehen Creek Weather observations

Data are for observation ending at time listed.
 Day   Time    Ave.   Ave.  Ave.  Vector   Max.   Stn.    Total    Solar   Ave.  
  of    of     Air    Rel.  Wind   Wind    Wind   Baro.  Precip.   Rad.    Soil  
Year   Day     Temp.  Hum.  Speed  Dir.    Gust   Pres.                    Temp. 
2015   (PST)    F      %     mph   deg.    mph     mb.     in.     W/m2     F   
------------------------------------------------------------------------------
  30    5:50   27.5    94    0.1   266      0.4   836.0    3.68       0    999.0
  30    6:00   27.4    94    0.2   274      1.0   835.7    3.68       0    999.0
  30    6:10   27.4    94    0.2   256      1.1   836.1    3.68       0    999.0
  30    6:20   27.3    94    0.0   249      0.2   835.9    3.68       0    999.0
  30    6:30   27.1    94    0.3   231      0.8   835.7    3.68       0    999.0
  30    6:40   27.2    94    0.4   251      1.1   835.7    3.68       0    999.0
  30    6:50   27.1    94    0.1   260      0.7   835.9    3.68       0    999.0
  30    7:00   27.0    94    0.1   258      0.7   836.1    3.68       0    999.0
  30    7:10   26.9    94    0.1   237      0.7   835.9    3.68       1    999.0
  30    7:20   26.8    94    0.4   267      1.0   835.8    3.68       3    999.0
  30    7:30   26.8    94    0.2   227      1.1   835.7    3.68       8    999.0
  30    7:40   26.8    94    0.1   241      0.8   836.1    3.68      11    999.0
  30    7:50   26.8    94    0.1   238      0.9   836.0    3.68      16    999.0
  30    8:00   27.0    94    0.0   259      0.7   835.9    3.68      36    999.0
  30    8:10   27.3    94    0.2   223      1.0   836.0    3.68      33    999.0
  30    8:20   27.7    94    0.3   197      1.2   836.1    3.68      31    999.0
  30    8:30   28.2    94    0.3   192      1.5   836.2    3.68      32    999.0
  30    8:40   28.6    94    0.4   137      1.3   835.8    3.68      49    999.0
  30    8:50   29.3    94    0.5   167      1.2   836.0    3.68     148    999.0
  30    9:00   29.9    94    0.4   132      1.1   836.2    3.68     117    999.0
  30    9:10   31.0    93    0.6   169      1.8   836.3    3.68     224    999.0
  30    9:20   34.2    91    1.3   144      3.4   836.0    3.67     360    999.0
  30    9:30   36.9    82    2.1   102      5.7   835.7    3.68     158    999.0
  30    9:40   37.5    80    1.8   101      7.2   836.2    3.68     138    999.0
  30    9:50   37.6    79    2.9   100      7.2   836.2    3.68     133    999.0
  30   10:00   38.6    76    3.5    98      7.9   836.2    3.67     428    999.0
  30   10:10   40.7    70    3.7    98      9.3   835.8    3.67     505    999.0
  30   10:20   41.8    67    3.1    98      8.2   836.1    3.67     485    999.0
  30   10:30   42.0    65    4.8    97     10.1   836.3    3.67     511    999.0
  30   10:40   42.4    64    3.6   100      9.8   835.8    3.67     532    999.0
  30   10:50   42.7    63    4.5   104      9.1   836.0    3.67     538    999.0
  30   11:00   42.4    63    4.0    96      8.5   836.2    3.67     571    999.0
  30   11:10   42.4    62    4.1    91      9.6   835.7    3.67     477    999.0
  30   11:20   42.4    63    4.0   102      8.1   835.8    3.67     459    999.0
  30   11:30   42.7    62    4.7    92     12.6   835.9    3.67     582    999.0
  30   11:40   42.9    61    5.5    96     10.6   835.7    3.67     586    999.0
  30   11:50   43.9    58    3.6    96      7.9   835.6    3.67     582    999.0
  30   12:00   44.0    57    4.7    97     10.7   835.4    3.67     587    999.0
  30   12:10   44.2    57    4.5   110     10.0   835.5    3.67     589    999.0
  30   12:20   44.6    57    3.3    98      8.3   835.2    3.67     589    999.0
  30   12:30   44.7    56    4.1    96      8.7   834.9    3.67     588    999.0
  30   12:40   44.3    57    4.0    90      7.9   835.0    3.67     586    999.0
  30   12:50   45.3    57    4.2    97      8.2   835.1    3.67     601    999.0
  30   13:00   45.3    56    4.8   107      9.5   835.1    3.67     591    999.0
  30   13:10   45.0    53    5.8   106     11.8   834.9    3.67     521    999.0
  30   13:20   44.5    54    5.3    99     10.5   834.7    3.67     324    999.0
  30   13:30   43.7    55    4.0   103      9.8   834.5    3.67     103    999.0
  30   13:40   43.3    56    5.6   113     10.6   834.8    3.67     256    999.0
  30   13:50   43.4    57    4.7   105     11.2   834.6    3.67     239    999.0
  30   14:00   43.9    53    5.1   102     11.1   834.3    3.68     143    999.0
  30   14:10   44.1    53    4.8    95     10.0   834.5    3.67      96    999.0
  30   14:20   43.8    52    5.6   112     10.2   834.5    3.67     119    999.0
  30   14:30   44.0    50    5.1    88     12.4   834.5    3.67     441    999.0
  30   14:40   44.2    49    4.2    92      9.2   834.4    3.67     431    999.0
  30   14:50   44.3    48    4.8    98     10.2   834.4    3.67     409    999.0
  30   15:00   44.8    46    4.9    95      9.7   834.4    3.67     384    999.0
  30   15:10   44.8    46    5.4   102     14.0   833.8    3.67     302    999.0
  30   15:20   44.6    47    3.7   105      7.4   834.1    3.67     222    999.0
  30   15:30   44.5    49    3.5   101      6.9   834.3    3.67     146    999.0
  30   15:40   44.0    50    4.5    98      9.4   833.8    3.67      42    999.0
  30   15:50   43.5    52    4.1   109      8.3   834.1    3.68      28    999.0
  30   16:00   43.1    52    3.0   106      8.9   834.3    3.67      24    999.0
  30   16:10   42.9    55    4.1   105      8.6   834.1    3.67      38    999.0
  30   16:20   42.9    56    3.6   100      8.5   834.2    3.67      33    999.0
  30   16:30   42.4    58    1.9   125      7.6   834.3    3.67      23    999.0
  30   16:40   39.4    46    2.3   110      4.2     0.0    3.68      10    999.0
  30   16:50   40.9    59    0.6   302      2.1   430.9    3.67       9    999.0
  30   17:00   40.0    61    0.9   290      2.1   834.0    3.67       8    999.0
  30   17:10   39.0    63    0.6   270      3.1   834.5    3.67       6    999.0
  30   17:20   37.5    67    0.5   244      1.2   834.3    3.67       4    999.0
  30   17:30   35.7    71    0.5   253      1.5   834.2    3.67       2    999.0
  30   17:40   34.3    74    0.1   258      0.7   834.5    3.67       1    999.0
  30   17:50   33.3    76    0.1   241      0.8   834.5    3.67       0    999.0
  30   18:00   32.4    78    0.2   252      1.3   834.4    3.67       0    999.0
  30   18:10   31.6    79    0.3   250      1.3   834.3    3.67       0    999.0
  30   18:20   30.9    80    0.5   256      3.1   834.4    3.68       0    999.0
  30   18:30   30.2    81    0.3   260      1.1   834.6    3.68       0    999.0
  30   18:40   29.6    83    0.4   236      1.6   834.4    3.68       0    999.0
  30   18:50   29.0    84    0.3   268      1.0   834.5    3.68       0    999.0
  30   19:00   28.6    84    0.1   292      1.1   834.5    3.68       0    999.0
  30   19:10   28.0    85    0.1   255      0.7   834.8    3.68       0    999.0
  30   19:20   27.5    86    0.2   251      0.9   834.6    3.68       0    999.0
  30   19:30   27.1    87    0.1   257      0.6   834.4    3.68       0    999.0
  30   19:40   26.7    88    0.0   261      0.5   834.8    3.68       0    999.0
  30   19:50   26.4    88    0.0   260      0.1   834.8    3.68       0    999.0
  30   20:00   26.4    88    0.4   238      1.7   834.9    3.68       0    999.0
  30   20:10   26.4    89    0.3   294      1.4   834.4    3.68       0    999.0
  30   20:20   26.3    88    0.1   332      0.8   834.6    3.68       0    999.0
  30   20:30   26.2    88    0.4   276      1.4   834.8    3.68       0    999.0
  30   20:40   26.1    89    0.3   181      1.2   834.6    3.68       0    999.0
  30   20:50   25.9    89    0.0   156      0.7   834.6    3.68       0    999.0
  30   21:00   25.8    89    0.0     0      0.0   834.6    3.68       0    999.0
  30   21:10   25.6    90    0.1   275      0.7   835.2    3.68       0    999.0
  30   21:20   25.5    90    0.1   242      1.0   835.1    3.68       0    999.0
  30   21:30   25.4    90    0.1   176      1.0   834.9    3.68       0    999.0
  30   21:40   25.2    90    0.1   277      1.1   834.9    3.68       0    999.0
  30   21:50   25.0    90    0.1   294      0.6   835.1    3.68       0    999.0
  30   22:00   25.0    90    0.3   303      1.5   835.3    3.68       0    999.0
  30   22:10   24.9    90    0.1   141      1.2   834.8    3.68       0    999.0
  30   22:20   24.7    90    0.1     0      0.9   835.1    3.68       0    999.0
  30   22:30   24.4    90    0.1   136      0.9   835.3    3.68       0    999.0
  30   22:40   24.2    91    0.0    66      0.2   835.3    3.68       0    999.0
  30   22:50   24.0    91    0.1   285      1.0   835.2    3.68       0    999.0
  30   23:00   23.9    92    0.3   278      1.2   835.0    3.68       0    999.0
  30   23:10   23.8    92    0.1   270      0.9   835.5    3.68       0    999.0
  30   23:20   23.6    92    0.1   243      0.7   835.2    3.68       0    999.0
  30   23:30   23.5    92    0.1   328      0.7   835.0    3.68       0    999.0
  30   23:40   23.3    92    0.1   273      0.6   835.3    3.68       0    999.0
  30   23:50   23.3    90    0.2   218      0.8   446.3    3.68       0    999.0
  31    0:00   22.8    92    0.0     0      0.0   835.0    3.68       0    999.0
  31    0:10   22.5    92    0.0   262      0.6   835.1    3.68       0    999.0
  31    0:20   22.5    92    0.5   286      1.5   835.3    3.68       0    999.0
  31    0:30   22.5    92    0.0   358      1.2   835.6    3.68       0    999.0
  31    0:40   22.2    92    0.2   277      1.4   835.4    3.68       0    999.0
  31    0:50   22.2    92    0.3   201      1.9   835.4    3.68       0    999.0
  31    1:00   22.2    92    0.2   287      0.9   835.4    3.68       0    999.0
  31    1:10   22.1    92    0.2   255      0.8   835.4    3.68       0    999.0
  31    1:20   21.8    92    0.0   248      0.7   835.1    3.68       0    999.0
  31    1:30   21.6    92    0.4   206      1.6   834.9    3.68       0    999.0
  31    1:40   21.6    92    0.4   251      1.3   835.5    3.68       0    999.0
  31    1:50   21.5    93    0.5   286      1.2   835.2    3.68       0    999.0
  31    2:00   21.5    92    0.4   276      1.5   834.9    3.68       0    999.0
  31    2:10   21.4    92    0.2    21      1.1   835.3    3.68       0    999.0
  31    2:20   21.4    92    0.8   276      2.0   835.3    3.68       0    999.0
  31    2:30   21.4    92    0.4   266      1.2   835.4    3.68       0    999.0
  31    2:40   21.2    92    0.6   301      1.8   835.1    3.68       0    999.0
  31    2:50   21.2    92    0.5   271      2.1   835.2    3.68       0    999.0
  31    3:00   21.1    92    0.3   294      1.9   835.4    3.68       0    999.0
  31    3:10   20.9    92    0.4   284      1.3   834.9    3.68       0    999.0
  31    3:20   20.7    92    0.5   331      1.6   835.1    3.68       0    999.0
  31    3:30   20.7    92    0.3   127      1.1   835.4    3.68       0    999.0
  31    3:40   20.4    92    0.6     5      2.5   835.3    3.68       0    999.0
  31    3:50   20.2    92    0.3   297      1.1   835.4    3.68       0    999.0
  31    4:00   20.0    92    0.4   267      1.7   835.5    3.68       0    999.0
  31    4:10   19.9    92    0.4   270      1.6   835.5    3.68       0    999.0
  31    4:20   19.7    92    0.3   270      1.2   835.4    3.68       0    999.0
  31    4:30   19.6    92    0.4   270      1.9   835.4    3.68       0    999.0
  31    4:40   19.5    92    0.3   299      1.7   835.7    3.68       0    999.0
  31    4:50   19.4    92    0.7   297      2.6   835.5    3.68       0    999.0
  31    5:00   19.4    92    0.5   271      1.7   835.3    3.68       0    999.0
  31    5:10   19.3    91    0.4   274      1.3   835.4    3.68       0    999.0
  31    5:20   19.2    91    1.0   282      1.9   835.3    3.68       0    999.0
  31    5:30   19.1    91    0.4   251      1.5   835.2    3.68       0    999.0
  31    5:40   19.0    91    0.3   328      1.3   835.9    3.68       0    999.0

Return to Sagehen Creek graphs page.


Western Regional Climate Center,wrcc@dri.edu